createdAt,value
2023-05-12T00:00:07.000Z,68.47
2023-05-12T00:01:06.971Z,70.64
2023-05-12T00:02:06.957Z,71.63
2023-05-12T00:03:07.084Z,69.81
2023-05-12T00:04:07.177Z,70.20
2023-05-12T00:05:06.942Z,70.74
2023-05-12T00:06:06.916Z,69.34
2023-05-12T00:07:06.927Z,68.66
2023-05-12T00:08:06.902Z,67.22
2023-05-12T00:09:06.900Z,70.34
2023-05-12T00:10:06.883Z,69.31
2023-05-12T00:11:06.869Z,69.38
2023-05-12T00:12:06.852Z,70.82
2023-05-12T00:13:06.851Z,71.60
2023-05-12T00:14:07.015Z,70.77
2023-05-12T00:15:06.817Z,71.67
2023-05-12T00:16:07.821Z,68.73
2023-05-12T00:17:06.802Z,70.78
2023-05-12T00:18:06.873Z,72.31
2023-05-12T00:19:06.807Z,70.60
2023-05-12T00:20:06.771Z,70.09
2023-05-12T00:21:06.762Z,70.56
2023-05-12T00:22:06.752Z,69.48
2023-05-12T00:23:06.765Z,68.43
2023-05-12T00:24:06.728Z,70.78
2023-05-12T00:25:06.719Z,69.22
2023-05-12T00:26:06.703Z,69.55
2023-05-12T00:27:06.704Z,68.84
2023-05-12T00:28:06.699Z,71.90
2023-05-12T00:29:06.671Z,69.95
2023-05-12T00:30:06.666Z,70.23
2023-05-12T00:31:06.667Z,70.23
2023-05-12T00:32:06.653Z,70.88
2023-05-12T00:33:06.693Z,70.41
2023-05-12T00:34:06.624Z,70.88
2023-05-12T00:35:06.630Z,70.10
2023-05-12T00:36:06.606Z,70.59
2023-05-12T00:37:06.611Z,69.37
2023-05-12T00:38:06.597Z,69.61
2023-05-12T00:39:06.577Z,70.22
2023-05-12T00:40:06.584Z,70.19
2023-05-12T00:41:06.559Z,68.21
2023-05-12T00:42:06.557Z,71.29
2023-05-12T00:43:06.530Z,70.03
2023-05-12T00:44:06.528Z,68.72
2023-05-12T00:45:06.514Z,68.52
2023-05-12T00:46:06.535Z,69.75
2023-05-12T00:47:06.512Z,70.18
2023-05-12T00:48:06.563Z,70.14
2023-05-12T00:49:06.480Z,68.21
2023-05-12T00:50:06.462Z,70.32
2023-05-12T00:51:06.471Z,68.46
2023-05-12T00:52:06.440Z,68.08
2023-05-12T00:53:06.429Z,71.38
2023-05-12T00:54:06.413Z,70.72
2023-05-12T00:55:06.412Z,71.03
2023-05-12T00:56:06.417Z,69.63
2023-05-12T00:57:06.386Z,69.89
2023-05-12T00:58:06.378Z,71.46
2023-05-12T00:59:06.370Z,70.23
2023-05-12T01:00:06.363Z,69.91
2023-05-12T01:01:06.365Z,68.63
2023-05-12T01:02:06.349Z,69.43
2023-05-12T01:03:06.410Z,69.95
2023-05-12T01:04:06.319Z,68.50
2023-05-12T01:05:06.346Z,68.67
2023-05-12T01:06:06.292Z,68.53
2023-05-12T01:07:06.291Z,70.81
2023-05-12T01:08:06.274Z,70.64
2023-05-12T01:09:07.265Z,69.09
2023-05-12T01:10:06.267Z,70.58
2023-05-12T01:11:06.242Z,68.28
2023-05-12T01:12:06.234Z,68.13
2023-05-12T01:13:06.226Z,71.25
2023-05-12T01:14:06.249Z,69.58
2023-05-12T01:15:06.222Z,68.09
2023-05-12T01:16:06.195Z,69.54
2023-05-12T01:17:06.230Z,70.34
2023-05-12T01:18:06.250Z,69.17
2023-05-12T01:19:06.236Z,71.19
2023-05-12T01:20:06.173Z,68.10
2023-05-12T01:21:06.141Z,70.14
2023-05-12T01:22:06.138Z,70.27
2023-05-12T01:23:06.134Z,70.81
2023-05-12T01:24:06.119Z,68.88
2023-05-12T01:25:06.097Z,70.88
2023-05-12T01:26:06.096Z,70.29
2023-05-12T01:27:06.086Z,70.44
2023-05-12T01:28:06.082Z,71.42
2023-05-12T01:29:06.084Z,68.09
2023-05-12T01:30:06.065Z,70.56
2023-05-12T01:31:06.050Z,70.90
2023-05-12T01:32:06.044Z,69.96
2023-05-12T01:33:06.045Z,72.95
2023-05-12T01:34:06.026Z,70.49
2023-05-12T01:35:06.005Z,70.17
2023-05-12T01:36:06.003Z,69.92
2023-05-12T01:37:05.979Z,70.01
2023-05-12T01:38:05.986Z,70.25
2023-05-12T01:39:05.960Z,69.18
2023-05-12T01:40:05.973Z,70.14
2023-05-12T01:41:05.937Z,69.06
2023-05-12T01:42:05.941Z,70.76
2023-05-12T01:43:05.927Z,69.20
2023-05-12T01:44:05.941Z,69.61
2023-05-12T01:45:06.897Z,68.75
2023-05-12T01:46:05.926Z,68.97
2023-05-12T01:47:05.884Z,69.85
2023-05-12T01:48:05.900Z,71.11
2023-05-12T01:49:05.868Z,71.47
2023-05-12T01:50:05.845Z,69.59
2023-05-12T01:51:05.833Z,69.13
2023-05-12T01:52:05.839Z,70.22
2023-05-12T01:53:05.812Z,70.16
2023-05-12T01:54:05.799Z,70.42
2023-05-12T01:55:05.786Z,72.02
2023-05-12T01:56:05.780Z,70.78
2023-05-12T01:57:05.784Z,67.06
2023-05-12T01:58:05.756Z,71.48
2023-05-12T01:59:05.783Z,71.28
2023-05-12T02:00:05.738Z,70.66
2023-05-12T02:01:05.743Z,74.35
2023-05-12T02:02:05.756Z,69.45
2023-05-12T02:03:05.762Z,71.10
2023-05-12T02:04:05.715Z,71.22
2023-05-12T02:05:05.679Z,71.63
2023-05-12T02:06:05.690Z,70.33
2023-05-12T02:07:05.663Z,69.50
2023-05-12T02:08:05.654Z,69.71
2023-05-12T02:09:05.659Z,71.26
2023-05-12T02:10:05.630Z,70.84
2023-05-12T02:11:05.637Z,70.59
2023-05-12T02:12:05.624Z,71.12
2023-05-12T02:13:05.602Z,70.08
2023-05-12T02:14:05.602Z,71.60
2023-05-12T02:15:05.599Z,71.89
2023-05-12T02:16:05.600Z,72.77
2023-05-12T02:17:05.576Z,72.13
2023-05-12T02:18:05.569Z,70.63
2023-05-12T02:19:05.650Z,69.54
2023-05-12T02:20:05.560Z,70.94
2023-05-12T02:21:05.532Z,72.03
2023-05-12T02:22:05.508Z,73.12
2023-05-12T02:23:05.508Z,70.49
2023-05-12T02:24:05.497Z,69.97
2023-05-12T02:25:05.559Z,71.83
2023-05-12T02:26:05.475Z,71.63
2023-05-12T02:27:05.464Z,70.34
2023-05-12T02:28:05.453Z,71.67
2023-05-12T02:29:05.452Z,71.68
2023-05-12T02:30:05.438Z,73.49
2023-05-12T02:31:05.425Z,70.05
2023-05-12T02:32:05.492Z,70.41
2023-05-12T02:33:05.443Z,73.24
2023-05-12T02:34:06.663Z,71.07
2023-05-12T02:35:06.382Z,72.74
2023-05-12T02:36:05.374Z,71.43
2023-05-12T02:37:05.361Z,71.59
2023-05-12T02:38:05.362Z,71.87
2023-05-12T02:39:05.348Z,72.42
2023-05-12T02:40:05.330Z,70.89
2023-05-12T02:41:05.374Z,72.63
2023-05-12T02:42:05.308Z,70.48
2023-05-12T02:43:05.307Z,70.08
2023-05-12T02:44:05.301Z,73.09
2023-05-12T02:45:05.276Z,70.77
2023-05-12T02:46:05.369Z,71.85
2023-05-12T02:47:05.248Z,69.75
2023-05-12T02:48:05.316Z,70.08
2023-05-12T02:49:05.240Z,70.46
2023-05-12T02:50:05.224Z,72.26
2023-05-12T02:51:05.263Z,71.21
2023-05-12T02:52:05.221Z,69.92
2023-05-12T02:53:05.205Z,71.87
2023-05-12T02:54:05.181Z,70.77
2023-05-12T02:55:05.168Z,71.91
2023-05-12T02:56:05.157Z,71.65
2023-05-12T02:57:05.177Z,71.81
2023-05-12T02:58:05.140Z,71.47
2023-05-12T02:59:05.142Z,71.76
2023-05-12T03:00:05.134Z,70.42
2023-05-12T03:01:10.751Z,69.45
2023-05-12T03:02:07.241Z,70.93
2023-05-12T03:03:05.151Z,73.03
2023-05-12T03:04:05.079Z,72.50
2023-05-12T03:05:05.063Z,71.86
2023-05-12T03:06:05.071Z,70.10
2023-05-12T03:07:05.063Z,71.38
2023-05-12T03:08:05.040Z,72.22
2023-05-12T03:09:05.021Z,71.64
2023-05-12T03:10:05.021Z,71.63
2023-05-12T03:11:05.019Z,71.64
2023-05-12T03:12:04.997Z,70.85
2023-05-12T03:13:04.985Z,73.21
2023-05-12T03:14:04.976Z,69.26
2023-05-12T03:15:04.959Z,71.31
2023-05-12T03:16:04.966Z,70.68
2023-05-12T03:17:04.973Z,72.14
2023-05-12T03:18:04.961Z,71.33
2023-05-12T03:19:05.276Z,70.58
2023-05-12T03:20:04.920Z,71.86
2023-05-12T03:21:04.908Z,71.79
2023-05-12T03:22:04.886Z,72.63
2023-05-12T03:23:04.877Z,70.83
2023-05-12T03:24:04.881Z,72.33
2023-05-12T03:25:04.868Z,72.64
2023-05-12T03:26:04.843Z,72.82
2023-05-12T03:27:04.835Z,72.15
2023-05-12T03:28:04.826Z,72.57
2023-05-12T03:29:04.833Z,72.42
2023-05-12T03:30:04.849Z,72.06
2023-05-12T03:31:04.817Z,71.56
2023-05-12T03:32:04.782Z,71.73
2023-05-12T03:33:04.800Z,74.44
2023-05-12T03:34:04.778Z,73.12
2023-05-12T03:35:04.765Z,73.19
2023-05-12T03:36:04.738Z,72.99
2023-05-12T03:37:04.726Z,72.41
2023-05-12T03:38:04.725Z,72.18
2023-05-12T03:39:04.765Z,73.12
2023-05-12T03:40:04.696Z,74.01
2023-05-12T03:41:04.682Z,72.15
2023-05-12T03:42:04.669Z,72.83
2023-05-12T03:43:05.675Z,70.76
2023-05-12T03:44:04.666Z,72.38
2023-05-12T03:45:04.645Z,74.49
2023-05-12T03:46:04.683Z,71.77
2023-05-12T03:47:04.743Z,71.78
2023-05-12T03:48:04.652Z,74.53
2023-05-12T03:49:04.612Z,73.84
2023-05-12T03:50:04.624Z,73.35
2023-05-12T03:51:04.592Z,72.75
2023-05-12T03:52:04.577Z,72.29
2023-05-12T03:53:04.577Z,71.88
2023-05-12T03:54:04.562Z,72.20
2023-05-12T03:55:04.540Z,72.29
2023-05-12T03:56:04.527Z,70.76
2023-05-12T03:57:04.516Z,72.87
2023-05-12T03:58:04.520Z,72.00
2023-05-12T03:59:04.512Z,72.25
2023-05-12T04:00:04.490Z,70.86
2023-05-12T04:01:04.533Z,72.39
2023-05-12T04:02:04.582Z,71.16
2023-05-12T04:03:04.498Z,71.68
2023-05-12T04:04:04.510Z,71.36
2023-05-12T04:05:04.438Z,72.48
2023-05-12T04:06:04.419Z,72.47
2023-05-12T04:07:04.426Z,71.89
2023-05-12T04:08:04.411Z,70.83
2023-05-12T04:09:04.398Z,73.11
2023-05-12T04:10:04.453Z,71.90
2023-05-12T04:11:04.405Z,71.68
2023-05-12T04:12:04.371Z,72.00
2023-05-12T04:13:04.350Z,71.83
2023-05-12T04:14:04.341Z,70.83
2023-05-12T04:15:04.334Z,72.52
2023-05-12T04:16:04.395Z,70.60
2023-05-12T04:17:04.316Z,70.74
2023-05-12T04:18:04.363Z,71.22
2023-05-12T04:19:04.384Z,72.46
2023-05-12T04:20:04.303Z,71.44
2023-05-12T04:21:04.289Z,73.52
2023-05-12T04:22:04.254Z,71.20
2023-05-12T04:23:04.254Z,71.25
2023-05-12T04:24:04.236Z,71.18
2023-05-12T04:25:04.261Z,72.30
2023-05-12T04:26:04.229Z,71.41
2023-05-12T04:27:04.206Z,71.98
2023-05-12T04:28:04.208Z,73.17
2023-05-12T04:29:04.190Z,71.95
2023-05-12T04:30:04.197Z,73.33
2023-05-12T04:31:04.165Z,72.01
2023-05-12T04:32:04.275Z,71.22
2023-05-12T04:33:04.171Z,70.86
2023-05-12T04:34:04.133Z,72.68
2023-05-12T04:35:04.132Z,72.35
2023-05-12T04:36:04.136Z,72.98
2023-05-12T04:37:04.128Z,72.29
2023-05-12T04:38:04.096Z,72.22
2023-05-12T04:39:04.083Z,72.21
2023-05-12T04:40:04.083Z,69.74
2023-05-12T04:41:04.059Z,72.88
2023-05-12T04:42:04.043Z,73.51
2023-05-12T04:43:04.035Z,71.22
2023-05-12T04:44:04.038Z,71.31
2023-05-12T04:45:04.034Z,72.11
2023-05-12T04:46:04.023Z,72.26
2023-05-12T04:47:03.996Z,71.74
2023-05-12T04:48:04.027Z,72.65
2023-05-12T04:49:03.980Z,72.79
2023-05-12T04:50:03.963Z,73.02
2023-05-12T04:51:03.952Z,73.26
2023-05-12T04:52:03.964Z,72.33
2023-05-12T04:53:03.932Z,72.23
2023-05-12T04:54:03.928Z,73.14
2023-05-12T04:55:03.922Z,71.88
2023-05-12T04:56:03.913Z,72.07
2023-05-12T04:57:03.888Z,72.51
2023-05-12T04:58:03.890Z,71.78
2023-05-12T04:59:03.875Z,72.65
2023-05-12T05:00:03.867Z,72.04
2023-05-12T05:01:03.893Z,71.61
2023-05-12T05:02:03.831Z,71.03
2023-05-12T05:03:03.958Z,72.82
2023-05-12T05:04:03.843Z,72.68
2023-05-12T05:05:03.801Z,72.83
2023-05-12T05:06:03.791Z,71.20
2023-05-12T05:07:03.785Z,71.07
2023-05-12T05:08:03.787Z,70.43
2023-05-12T05:09:03.764Z,72.60
2023-05-12T05:10:03.754Z,70.80
2023-05-12T05:11:03.746Z,72.26
2023-05-12T05:12:03.754Z,71.82
2023-05-12T05:13:03.734Z,71.86
2023-05-12T05:14:03.721Z,71.08
2023-05-12T05:15:03.698Z,71.51
2023-05-12T05:16:03.748Z,71.81
2023-05-12T05:17:03.755Z,71.01
2023-05-12T05:18:03.681Z,71.30
2023-05-12T05:19:06.393Z,71.69
2023-05-12T05:20:11.417Z,70.43
2023-05-12T05:21:05.728Z,71.88
2023-05-12T05:22:04.643Z,71.46
2023-05-12T05:23:03.628Z,72.16
2023-05-12T05:24:03.619Z,69.76
2023-05-12T05:25:03.609Z,71.38
2023-05-12T05:26:03.604Z,70.85
2023-05-12T05:27:03.580Z,71.94
2023-05-12T05:28:03.566Z,70.11
2023-05-12T05:29:03.595Z,69.91
2023-05-12T05:30:03.545Z,70.86
2023-05-12T05:31:03.631Z,71.99
2023-05-12T05:32:03.528Z,70.07
2023-05-12T05:33:03.576Z,71.36
2023-05-12T05:34:03.522Z,70.74
2023-05-12T05:35:03.496Z,70.26
2023-05-12T05:36:03.506Z,69.50
2023-05-12T05:37:03.497Z,69.34
2023-05-12T05:38:03.465Z,70.46
2023-05-12T05:39:03.462Z,70.11
2023-05-12T05:40:03.448Z,70.67
2023-05-12T05:41:04.465Z,69.30
2023-05-12T05:42:03.425Z,69.67
2023-05-12T05:43:03.408Z,69.93
2023-05-12T05:44:03.399Z,69.18
2023-05-12T05:45:03.415Z,68.91
2023-05-12T05:46:03.391Z,68.90
2023-05-12T05:47:03.405Z,67.58
2023-05-12T05:48:03.412Z,65.33
2023-05-12T05:49:03.365Z,70.20
2023-05-12T05:50:03.378Z,69.20
2023-05-12T05:51:03.338Z,67.85
2023-05-12T05:52:03.322Z,69.46
2023-05-12T05:53:03.316Z,68.18
2023-05-12T05:54:03.310Z,70.02
2023-05-12T05:55:03.320Z,68.05
2023-05-12T05:56:03.292Z,68.11
2023-05-12T05:57:03.267Z,69.24
2023-05-12T05:58:03.266Z,68.76
2023-05-12T05:59:03.284Z,67.74
2023-05-12T06:00:03.264Z,69.79
2023-05-12T06:01:03.231Z,68.66
2023-05-12T06:02:03.291Z,69.07
2023-05-12T06:03:03.333Z,70.01
2023-05-12T06:04:03.356Z,69.74
2023-05-12T06:05:03.190Z,67.96
2023-05-12T06:06:03.179Z,68.18
2023-05-12T06:07:03.165Z,66.30
2023-05-12T06:08:03.160Z,67.32
2023-05-12T06:09:03.160Z,68.88
2023-05-12T06:10:03.155Z,70.58
2023-05-12T06:11:03.128Z,68.02
2023-05-12T06:12:03.133Z,67.66
2023-05-12T06:13:03.125Z,68.62
2023-05-12T06:14:03.122Z,68.48
2023-05-12T06:15:03.092Z,66.69
2023-05-12T06:16:03.079Z,67.04
2023-05-12T06:17:03.187Z,67.57
2023-05-12T06:18:03.090Z,70.50
2023-05-12T06:19:03.069Z,69.17
2023-05-12T06:20:03.041Z,68.34
2023-05-12T06:21:03.027Z,68.17
2023-05-12T06:22:03.022Z,69.22
2023-05-12T06:23:03.014Z,68.34
2023-05-12T06:24:02.997Z,68.48
2023-05-12T06:25:02.991Z,68.56
2023-05-12T06:26:02.972Z,68.82
2023-05-12T06:27:02.979Z,69.83
2023-05-12T06:28:02.968Z,68.66
2023-05-12T06:29:02.944Z,66.29
2023-05-12T06:30:02.949Z,66.32
2023-05-12T06:31:02.928Z,67.79
2023-05-12T06:32:02.977Z,68.35
2023-05-12T06:33:03.017Z,65.97
2023-05-12T06:34:02.901Z,68.62
2023-05-12T06:35:02.893Z,67.92
2023-05-12T06:36:02.902Z,67.37
2023-05-12T06:37:02.892Z,67.06
2023-05-12T06:38:02.857Z,68.67
2023-05-12T06:39:02.846Z,67.95
2023-05-12T06:40:02.835Z,68.29
2023-05-12T06:41:03.922Z,67.89
2023-05-12T06:42:02.868Z,66.90
2023-05-12T06:43:02.805Z,67.20
2023-05-12T06:44:02.811Z,67.50
2023-05-12T06:45:02.789Z,66.32
2023-05-12T06:46:02.821Z,65.14
2023-05-12T06:47:02.771Z,67.68
2023-05-12T06:48:02.800Z,68.66
2023-05-12T06:49:02.745Z,68.28
2023-05-12T06:50:02.733Z,69.45
2023-05-12T06:51:02.732Z,68.74
2023-05-12T06:52:02.720Z,66.46
2023-05-12T06:53:02.707Z,67.23
2023-05-12T06:54:02.698Z,67.80
2023-05-12T06:55:02.705Z,66.87
2023-05-12T06:56:02.686Z,68.14
2023-05-12T06:57:02.685Z,66.03
2023-05-12T06:58:02.668Z,65.88
2023-05-12T06:59:02.639Z,66.83
2023-05-12T07:00:02.684Z,66.28
2023-05-12T07:01:02.659Z,68.73
2023-05-12T07:02:02.639Z,66.86
2023-05-12T07:03:02.713Z,67.11
2023-05-12T07:04:02.675Z,66.49
2023-05-12T07:05:02.600Z,66.33
2023-05-12T07:06:02.609Z,66.71
2023-05-12T07:07:02.559Z,65.91
2023-05-12T07:08:02.556Z,67.91
2023-05-12T07:09:02.569Z,66.32
2023-05-12T07:10:02.552Z,68.07
2023-05-12T07:11:02.519Z,66.15
2023-05-12T07:12:02.520Z,65.70
2023-05-12T07:13:02.521Z,66.47
2023-05-12T07:14:02.516Z,68.16
2023-05-12T07:15:02.485Z,67.02
2023-05-12T07:16:02.497Z,65.09
2023-05-12T07:17:02.464Z,67.64
2023-05-12T07:18:02.511Z,66.70
2023-05-12T07:19:02.506Z,67.46
2023-05-12T07:20:02.459Z,67.40
2023-05-12T07:21:02.423Z,68.47
2023-05-12T07:22:02.413Z,64.88
2023-05-12T07:23:02.411Z,69.00
2023-05-12T07:24:02.407Z,67.32
2023-05-12T07:25:02.407Z,68.03
2023-05-12T07:26:02.366Z,67.36
2023-05-12T07:27:02.352Z,66.43
2023-05-12T07:28:02.369Z,67.79
2023-05-12T07:29:02.485Z,67.20
2023-05-12T07:30:02.366Z,65.64
2023-05-12T07:31:02.385Z,66.69
2023-05-12T07:32:02.302Z,69.33
2023-05-12T07:33:02.344Z,65.78
2023-05-12T07:34:02.285Z,65.56
2023-05-12T07:35:02.301Z,65.58
2023-05-12T07:36:02.272Z,64.37
2023-05-12T07:37:02.321Z,65.19
2023-05-12T07:38:02.254Z,66.31
2023-05-12T07:39:02.237Z,66.98
2023-05-12T07:40:02.238Z,67.88
2023-05-12T07:41:02.219Z,68.18
2023-05-12T07:42:02.217Z,68.22
2023-05-12T07:43:02.193Z,67.64
2023-05-12T07:44:02.203Z,67.30
2023-05-12T07:45:02.167Z,65.19
2023-05-12T07:46:02.168Z,68.67
2023-05-12T07:47:02.206Z,67.83
2023-05-12T07:48:02.181Z,68.07
2023-05-12T07:49:02.135Z,67.18
2023-05-12T07:50:02.120Z,67.25
2023-05-12T07:51:02.125Z,69.00
2023-05-12T07:52:02.221Z,66.99
2023-05-12T07:53:02.096Z,68.48
2023-05-12T07:54:02.097Z,68.56
2023-05-12T07:55:02.076Z,66.87
2023-05-12T07:56:02.074Z,66.57
2023-05-12T07:57:02.059Z,68.05
2023-05-12T07:58:02.039Z,65.98
2023-05-12T07:59:02.035Z,67.33
2023-05-12T08:00:02.082Z,67.82
2023-05-12T08:01:02.023Z,68.99
2023-05-12T08:02:02.160Z,66.73
2023-05-12T08:03:02.111Z,68.70
2023-05-12T08:04:02.102Z,66.97
2023-05-12T08:05:01.988Z,68.32
2023-05-12T08:06:01.980Z,68.60
2023-05-12T08:07:01.952Z,68.27
2023-05-12T08:08:01.936Z,68.45
2023-05-12T08:09:01.934Z,66.32
2023-05-12T08:10:01.942Z,68.90
2023-05-12T08:11:01.900Z,67.98
2023-05-12T08:12:01.899Z,64.60
2023-05-12T08:13:01.893Z,66.42
2023-05-12T08:14:01.899Z,67.78
2023-05-12T08:15:01.887Z,68.17
2023-05-12T08:16:01.870Z,70.18
2023-05-12T08:17:01.911Z,68.31
2023-05-12T08:18:02.015Z,66.69
2023-05-12T08:19:01.853Z,67.62
2023-05-12T08:20:01.829Z,67.34
2023-05-12T08:21:01.801Z,69.35
2023-05-12T08:22:01.805Z,66.79
2023-05-12T08:23:01.788Z,66.41
2023-05-12T08:24:01.784Z,69.22
2023-05-12T08:25:01.825Z,68.48
2023-05-12T08:26:01.760Z,68.02
2023-05-12T08:27:01.754Z,69.16
2023-05-12T08:28:01.733Z,66.55
2023-05-12T08:29:01.744Z,68.35
2023-05-12T08:30:01.714Z,69.11
2023-05-12T08:31:04.084Z,67.86
2023-05-12T08:32:02.698Z,68.63
2023-05-12T08:33:02.786Z,69.00
2023-05-12T08:35:02.662Z,67.85
2023-05-12T08:36:01.659Z,67.97
2023-05-12T08:37:01.648Z,67.36
2023-05-12T08:38:01.658Z,68.14
2023-05-12T08:39:01.627Z,67.00
2023-05-12T08:40:01.617Z,67.97
2023-05-12T08:41:01.608Z,68.80
2023-05-12T08:42:01.593Z,69.70
2023-05-12T08:43:02.045Z,69.81
2023-05-12T08:44:02.572Z,70.72
2023-05-12T08:45:01.570Z,68.28
2023-05-12T08:46:01.573Z,67.84
2023-05-12T08:47:01.611Z,68.94
2023-05-12T08:48:01.575Z,69.80
2023-05-12T08:49:01.583Z,67.48
2023-05-12T08:50:01.511Z,66.06
2023-05-12T08:51:01.512Z,68.12
2023-05-12T08:52:01.528Z,68.30
2023-05-12T08:53:01.487Z,67.83
2023-05-12T08:54:01.474Z,65.91
2023-05-12T08:55:03.285Z,68.43
2023-05-12T08:58:02.436Z,67.79
2023-05-12T08:59:01.425Z,67.48
2023-05-12T09:00:01.677Z,66.79
2023-05-12T09:01:01.444Z,67.08
2023-05-12T09:02:01.446Z,66.03
2023-05-12T09:03:01.422Z,67.78
2023-05-12T09:04:01.418Z,67.01
2023-05-12T09:05:01.469Z,68.03
2023-05-12T09:06:01.365Z,68.68
2023-05-12T09:07:01.375Z,68.37
2023-05-12T09:08:01.341Z,66.20
2023-05-12T09:09:01.359Z,67.55
2023-05-12T09:10:01.315Z,68.38
2023-05-12T09:11:01.318Z,67.88
2023-05-12T09:12:01.296Z,67.14
2023-05-12T09:13:01.286Z,66.26
2023-05-12T09:14:01.279Z,68.61
2023-05-12T09:15:01.286Z,69.71
2023-05-12T09:16:01.351Z,69.13
2023-05-12T09:17:01.256Z,66.17
2023-05-12T09:18:01.286Z,67.88
2023-05-12T09:19:01.295Z,69.72
2023-05-12T09:20:01.236Z,66.86
2023-05-12T09:21:01.272Z,66.95
2023-05-12T09:22:01.197Z,67.88
2023-05-12T09:23:01.191Z,67.14
2023-05-12T09:24:01.190Z,66.87
2023-05-12T09:25:01.179Z,68.35
2023-05-12T09:26:01.172Z,68.63
2023-05-12T09:27:01.157Z,68.39
2023-05-12T09:28:01.150Z,69.61
2023-05-12T09:29:01.129Z,69.83
2023-05-12T09:30:01.129Z,67.84
2023-05-12T09:31:01.108Z,69.41
2023-05-12T09:32:01.223Z,68.47
2023-05-12T09:33:01.131Z,68.11
2023-05-12T09:34:01.090Z,67.38
2023-05-12T09:35:01.088Z,67.83
2023-05-12T09:36:01.088Z,68.46
2023-05-12T09:37:01.086Z,64.14
2023-05-12T09:38:01.043Z,69.21
2023-05-12T09:39:01.059Z,68.40
2023-05-12T09:40:01.022Z,68.15
2023-05-12T09:41:01.020Z,69.02
2023-05-12T09:42:01.014Z,67.67
2023-05-12T09:43:01.000Z,68.60
2023-05-12T09:44:00.993Z,67.41
2023-05-12T09:45:00.974Z,65.33
2023-05-12T09:46:00.990Z,65.61
2023-05-12T09:47:00.954Z,68.59
2023-05-12T09:48:00.994Z,67.93
2023-05-12T09:49:00.966Z,68.95
2023-05-12T09:50:00.930Z,69.13
2023-05-12T09:51:01.155Z,68.46
2023-05-12T09:52:00.916Z,68.29
2023-05-12T09:53:00.929Z,67.74
2023-05-12T09:54:00.886Z,65.99
2023-05-12T09:55:00.879Z,65.46
2023-05-12T09:56:00.863Z,68.39
2023-05-12T09:57:00.868Z,68.85
2023-05-12T09:58:00.861Z,66.52
2023-05-12T09:59:00.836Z,67.95
2023-05-12T10:00:00.831Z,67.96
2023-05-12T10:02:02.896Z,66.59
2023-05-12T10:03:00.874Z,66.85
2023-05-12T10:04:00.788Z,65.42
2023-05-12T10:05:01.070Z,63.59
2023-05-12T10:06:00.800Z,67.14
2023-05-12T10:07:00.794Z,67.00
2023-05-12T10:08:00.752Z,65.96
2023-05-12T10:09:01.008Z,67.45
2023-05-12T10:10:00.724Z,68.62
2023-05-12T10:11:00.723Z,69.26
2023-05-12T10:12:00.728Z,67.30
2023-05-12T10:13:00.702Z,68.21
2023-05-12T10:14:00.686Z,68.03
2023-05-12T10:15:00.679Z,68.20
2023-05-12T10:16:00.685Z,69.63
2023-05-12T10:17:00.708Z,68.97
2023-05-12T10:18:00.730Z,68.20
2023-05-12T10:19:00.646Z,68.59
2023-05-12T10:20:00.625Z,68.48
2023-05-12T10:21:00.641Z,71.14
2023-05-12T10:22:00.598Z,69.05
2023-05-12T10:23:00.588Z,69.51
2023-05-12T10:24:00.606Z,70.41
2023-05-12T10:25:00.596Z,69.20
2023-05-12T10:26:00.571Z,68.49
2023-05-12T10:27:00.560Z,67.46
2023-05-12T10:28:00.549Z,68.23
2023-05-12T10:29:00.534Z,68.94
2023-05-12T10:30:00.541Z,68.65
2023-05-12T10:31:00.549Z,67.67
2023-05-12T10:32:00.514Z,67.19
2023-05-12T10:33:00.521Z,65.33
2023-05-12T10:34:00.543Z,67.66
2023-05-12T10:35:01.802Z,66.04
2023-05-12T10:36:00.470Z,69.46
2023-05-12T10:37:00.459Z,69.66
2023-05-12T10:38:00.450Z,69.19
2023-05-12T10:39:00.444Z,69.34
2023-05-12T10:40:00.440Z,70.57
2023-05-12T10:41:00.551Z,66.97
2023-05-12T10:42:00.410Z,69.29
2023-05-12T10:43:00.399Z,70.34
2023-05-12T10:44:00.413Z,67.73
2023-05-12T10:45:00.394Z,68.17
2023-05-12T10:46:00.409Z,68.51
2023-05-12T10:47:00.399Z,69.17
2023-05-12T10:48:00.378Z,66.99
2023-05-12T10:49:00.356Z,66.76
2023-05-12T10:50:00.332Z,67.11
2023-05-12T10:51:00.320Z,71.19
2023-05-12T10:52:00.316Z,68.24
2023-05-12T10:53:00.329Z,70.02
2023-05-12T10:54:00.291Z,69.67
2023-05-12T10:55:01.348Z,70.53
2023-05-12T10:56:01.310Z,70.28
2023-05-12T10:57:00.570Z,70.48
2023-05-12T10:58:00.607Z,70.00
2023-05-12T10:59:00.565Z,68.73
2023-05-12T11:00:01.087Z,70.45
2023-05-12T11:01:00.666Z,70.01
2023-05-12T11:02:01.285Z,69.51
2023-05-12T11:03:04.338Z,70.11
2023-05-12T11:04:02.253Z,70.14
2023-05-12T11:05:00.345Z,69.61
2023-05-12T11:06:00.958Z,71.10
2023-05-12T11:07:01.243Z,69.77
2023-05-12T11:08:00.752Z,69.45
2023-05-12T11:09:00.939Z,70.32
2023-05-12T11:10:01.728Z,68.80
2023-05-12T11:11:01.146Z,68.60
2023-05-12T11:12:00.650Z,70.06
2023-05-12T11:13:00.129Z,69.43
2023-05-12T11:14:00.136Z,69.52
2023-05-12T11:15:00.107Z,70.37
2023-05-12T11:16:00.184Z,69.69
2023-05-12T11:17:00.095Z,69.68
2023-05-12T11:18:00.174Z,69.12
2023-05-12T11:19:00.151Z,70.50
2023-05-12T11:20:00.036Z,69.87
2023-05-12T11:21:00.113Z,69.51
2023-05-12T11:22:00.130Z,69.28
2023-05-12T11:23:00.005Z,69.18
2023-05-12T11:24:00.007Z,68.82
2023-05-12T11:25:00.009Z,67.62
2023-05-12T11:26:00.058Z,69.19
2023-05-12T11:26:59.968Z,70.02
2023-05-12T11:27:59.969Z,69.07
2023-05-12T11:29:00.004Z,70.49
2023-05-12T11:29:59.942Z,69.34
2023-05-12T11:30:59.971Z,70.61
2023-05-12T11:31:59.969Z,69.03
2023-05-12T11:32:59.950Z,69.45
2023-05-12T11:34:11.306Z,70.88
2023-05-12T11:35:01.904Z,69.39
2023-05-12T11:35:59.883Z,69.90
2023-05-12T11:36:59.863Z,70.25
2023-05-12T11:37:59.860Z,70.54
2023-05-12T11:38:59.844Z,70.32
2023-05-12T11:39:59.852Z,69.72
2023-05-12T11:40:59.839Z,68.46
2023-05-12T11:42:11.654Z,69.60
2023-05-12T11:43:01.814Z,71.37
2023-05-12T11:43:59.814Z,70.91
2023-05-12T11:44:59.861Z,70.86
2023-05-12T11:45:59.871Z,69.41
2023-05-12T11:46:59.780Z,67.44
2023-05-12T11:47:59.775Z,69.78
2023-05-12T11:48:59.769Z,68.79
2023-05-12T11:49:59.756Z,69.99
2023-05-12T11:50:59.750Z,71.47
2023-05-12T11:51:59.727Z,71.36
2023-05-12T11:52:59.718Z,70.52
2023-05-12T11:53:59.729Z,69.12
2023-05-12T11:54:59.705Z,70.06
2023-05-12T11:55:59.697Z,70.42
2023-05-12T11:56:59.694Z,69.41
2023-05-12T11:57:59.693Z,71.14
2023-05-12T11:58:59.691Z,68.61
2023-05-12T11:59:59.653Z,69.72
2023-05-12T12:00:59.652Z,68.80
2023-05-12T12:01:59.648Z,70.92
2023-05-12T12:02:59.789Z,68.33
2023-05-12T12:03:59.725Z,68.29
2023-05-12T12:04:59.591Z,71.62
2023-05-12T12:05:59.607Z,71.87
2023-05-12T12:06:59.583Z,70.36
2023-05-12T12:07:59.603Z,69.70
2023-05-12T12:08:59.561Z,70.68
2023-05-12T12:09:59.552Z,71.80
2023-05-12T12:11:00.945Z,70.80
2023-05-12T12:11:59.541Z,70.99
2023-05-12T12:12:59.538Z,71.15
2023-05-12T12:13:59.509Z,70.75
2023-05-12T12:14:59.504Z,71.40
2023-05-12T12:15:59.549Z,70.48
2023-05-12T12:16:59.536Z,70.94
2023-05-12T12:17:59.587Z,70.42
2023-05-12T12:18:59.515Z,71.15
2023-05-12T12:19:59.453Z,70.38
2023-05-12T12:20:59.437Z,69.47
2023-05-12T12:21:59.450Z,72.34
2023-05-12T12:22:59.427Z,70.27
2023-05-12T12:23:59.419Z,71.00
2023-05-12T12:24:59.466Z,68.07
2023-05-12T12:25:59.401Z,71.11
2023-05-12T12:26:59.399Z,71.25
2023-05-12T12:27:59.402Z,71.26
2023-05-12T12:28:59.461Z,70.19
2023-05-12T12:29:59.357Z,70.12
2023-05-12T12:30:59.375Z,70.25
2023-05-12T12:31:59.347Z,69.14
2023-05-12T12:32:59.434Z,69.74
2023-05-12T12:33:59.314Z,70.39
2023-05-12T12:34:59.306Z,71.00
2023-05-12T12:35:59.305Z,71.59
2023-05-12T12:36:59.289Z,70.16
2023-05-12T12:37:59.282Z,71.41
2023-05-12T12:38:59.263Z,71.00
2023-05-12T12:39:59.253Z,70.92
2023-05-12T12:40:59.263Z,69.73
2023-05-12T12:41:59.228Z,71.81
2023-05-12T12:42:59.217Z,70.11
2023-05-12T12:43:59.210Z,69.66
2023-05-12T12:44:59.214Z,70.99
2023-05-12T12:45:59.196Z,70.92
2023-05-12T12:46:59.203Z,69.54
2023-05-12T12:47:59.206Z,68.57
2023-05-12T12:48:59.295Z,67.41
2023-05-12T12:49:59.171Z,70.07
2023-05-12T12:50:59.139Z,71.80
2023-05-12T12:51:59.136Z,70.08
2023-05-12T12:52:59.140Z,70.07
2023-05-12T12:53:59.110Z,70.78
2023-05-12T12:54:59.114Z,69.26
2023-05-12T12:55:59.085Z,69.74